sensor_id;sensor_type;location;lat;lon;timestamp;temperature;humidity
6581;DHT22;3324;50.796;7.228;2023-04-15T00:00:41;7.60;99.90
6581;DHT22;3324;50.796;7.228;2023-04-15T00:03:06;7.60;99.90
6581;DHT22;3324;50.796;7.228;2023-04-15T00:05:33;7.50;99.90
6581;DHT22;3324;50.796;7.228;2023-04-15T00:07:59;7.40;99.90
6581;DHT22;3324;50.796;7.228;2023-04-15T00:10:26;7.40;99.90
6581;DHT22;3324;50.796;7.228;2023-04-15T00:12:52;7.30;99.90
6581;DHT22;3324;50.796;7.228;2023-04-15T00:15:18;7.30;99.90
6581;DHT22;3324;50.796;7.228;2023-04-15T00:17:44;7.30;99.90
6581;DHT22;3324;50.796;7.228;2023-04-15T00:20:10;7.30;99.90
6581;DHT22;3324;50.796;7.228;2023-04-15T00:22:36;7.30;99.90
6581;DHT22;3324;50.796;7.228;2023-04-15T00:25:02;7.20;99.90
6581;DHT22;3324;50.796;7.228;2023-04-15T00:27:27;7.20;99.90
6581;DHT22;3324;50.796;7.228;2023-04-15T00:29:54;7.20;99.90
6581;DHT22;3324;50.796;7.228;2023-04-15T00:32:19;7.10;99.90
6581;DHT22;3324;50.796;7.228;2023-04-15T00:34:45;7.10;99.90
6581;DHT22;3324;50.796;7.228;2023-04-15T00:37:11;7.10;99.90
6581;DHT22;3324;50.796;7.228;2023-04-15T00:39:37;7.10;99.90
6581;DHT22;3324;50.796;7.228;2023-04-15T00:42:03;7.10;99.90
6581;DHT22;3324;50.796;7.228;2023-04-15T00:44:29;7.10;99.90
6581;DHT22;3324;50.796;7.228;2023-04-15T00:46:56;6.90;99.90
6581;DHT22;3324;50.796;7.228;2023-04-15T00:49:21;6.90;99.90
6581;DHT22;3324;50.796;7.228;2023-04-15T00:51:48;6.90;99.90
6581;DHT22;3324;50.796;7.228;2023-04-15T00:54:13;6.90;99.90
6581;DHT22;3324;50.796;7.228;2023-04-15T00:56:39;6.80;99.90
6581;DHT22;3324;50.796;7.228;2023-04-15T00:59:05;6.80;99.90
6581;DHT22;3324;50.796;7.228;2023-04-15T01:01:33;6.80;99.90
6581;DHT22;3324;50.796;7.228;2023-04-15T01:03:59;6.80;99.90
6581;DHT22;3324;50.796;7.228;2023-04-15T01:06:25;6.80;99.90
6581;DHT22;3324;50.796;7.228;2023-04-15T01:08:56;6.70;99.90
6581;DHT22;3324;50.796;7.228;2023-04-15T01:11:22;6.70;99.90
6581;DHT22;3324;50.796;7.228;2023-04-15T01:13:49;6.70;99.90
6581;DHT22;3324;50.796;7.228;2023-04-15T01:16:15;6.60;99.90
6581;DHT22;3324;50.796;7.228;2023-04-15T01:18:41;6.60;99.90
6581;DHT22;3324;50.796;7.228;2023-04-15T01:21:07;6.60;99.90
6581;DHT22;3324;50.796;7.228;2023-04-15T01:23:36;6.60;99.90
6581;DHT22;3324;50.796;7.228;2023-04-15T01:26:03;6.60;99.90
6581;DHT22;3324;50.796;7.228;2023-04-15T01:28:29;6.40;99.90
6581;DHT22;3324;50.796;7.228;2023-04-15T01:31:09;6.50;99.90
6581;DHT22;3324;50.796;7.228;2023-04-15T01:33:36;6.40;99.90
6581;DHT22;3324;50.796;7.228;2023-04-15T01:36:02;6.40;99.90
6581;DHT22;3324;50.796;7.228;2023-04-15T01:38:28;6.50;99.90
6581;DHT22;3324;50.796;7.228;2023-04-15T01:40:55;6.40;99.90
6581;DHT22;3324;50.796;7.228;2023-04-15T01:43:20;6.30;99.90
6581;DHT22;3324;50.796;7.228;2023-04-15T01:45:46;6.30;99.90
6581;DHT22;3324;50.796;7.228;2023-04-15T01:48:12;6.30;99.90
6581;DHT22;3324;50.796;7.228;2023-04-15T01:50:38;6.30;99.90
6581;DHT22;3324;50.796;7.228;2023-04-15T01:53:04;6.30;99.90
6581;DHT22;3324;50.796;7.228;2023-04-15T01:55:29;6.30;99.90
6581;DHT22;3324;50.796;7.228;2023-04-15T01:57:55;6.20;99.90
6581;DHT22;3324;50.796;7.228;2023-04-15T02:00:21;6.20;99.90
6581;DHT22;3324;50.796;7.228;2023-04-15T02:02:47;6.20;99.90
6581;DHT22;3324;50.796;7.228;2023-04-15T02:05:13;6.20;99.90
6581;DHT22;3324;50.796;7.228;2023-04-15T02:07:39;6.20;99.90
6581;DHT22;3324;50.796;7.228;2023-04-15T02:10:04;6.20;99.90
6581;DHT22;3324;50.796;7.228;2023-04-15T02:12:30;6.10;99.90
6581;DHT22;3324;50.796;7.228;2023-04-15T02:14:56;6.10;99.90
6581;DHT22;3324;50.796;7.228;2023-04-15T02:17:21;6.00;99.90
6581;DHT22;3324;50.796;7.228;2023-04-15T02:19:47;6.00;99.90
6581;DHT22;3324;50.796;7.228;2023-04-15T02:22:13;6.10;99.90
6581;DHT22;3324;50.796;7.228;2023-04-15T02:24:43;6.10;99.90
6581;DHT22;3324;50.796;7.228;2023-04-15T02:27:12;6.00;99.90
6581;DHT22;3324;50.796;7.228;2023-04-15T02:29:39;6.00;99.90
6581;DHT22;3324;50.796;7.228;2023-04-15T02:32:04;6.00;99.90
6581;DHT22;3324;50.796;7.228;2023-04-15T02:34:30;5.90;99.90
6581;DHT22;3324;50.796;7.228;2023-04-15T02:36:57;5.90;99.90
6581;DHT22;3324;50.796;7.228;2023-04-15T02:39:23;5.90;99.90
6581;DHT22;3324;50.796;7.228;2023-04-15T02:41:49;5.90;99.90
6581;DHT22;3324;50.796;7.228;2023-04-15T02:44:17;5.90;99.90
6581;DHT22;3324;50.796;7.228;2023-04-15T02:46:45;5.80;99.90
6581;DHT22;3324;50.796;7.228;2023-04-15T02:49:17;5.90;99.90
6581;DHT22;3324;50.796;7.228;2023-04-15T02:51:42;5.80;99.90
6581;DHT22;3324;50.796;7.228;2023-04-15T02:54:08;5.80;99.90
6581;DHT22;3324;50.796;7.228;2023-04-15T02:56:34;5.80;99.90
6581;DHT22;3324;50.796;7.228;2023-04-15T02:58:59;5.70;99.90
6581;DHT22;3324;50.796;7.228;2023-04-15T03:01:25;5.70;99.90
6581;DHT22;3324;50.796;7.228;2023-04-15T03:03:51;5.70;99.90
6581;DHT22;3324;50.796;7.228;2023-04-15T03:06:17;5.70;99.90
6581;DHT22;3324;50.796;7.228;2023-04-15T03:08:42;5.70;99.90
6581;DHT22;3324;50.796;7.228;2023-04-15T03:11:08;5.70;99.90
6581;DHT22;3324;50.796;7.228;2023-04-15T03:13:33;5.70;99.90
6581;DHT22;3324;50.796;7.228;2023-04-15T03:15:59;5.70;99.90
6581;DHT22;3324;50.796;7.228;2023-04-15T03:18:25;5.60;99.90
6581;DHT22;3324;50.796;7.228;2023-04-15T03:20:50;5.60;99.90
6581;DHT22;3324;50.796;7.228;2023-04-15T03:23:16;5.60;99.90
6581;DHT22;3324;50.796;7.228;2023-04-15T03:25:45;5.60;99.90
6581;DHT22;3324;50.796;7.228;2023-04-15T03:28:10;5.60;99.90
6581;DHT22;3324;50.796;7.228;2023-04-15T03:30:36;5.70;99.90
6581;DHT22;3324;50.796;7.228;2023-04-15T03:33:02;5.70;99.90
6581;DHT22;3324;50.796;7.228;2023-04-15T03:35:27;5.70;99.90
6581;DHT22;3324;50.796;7.228;2023-04-15T03:37:53;5.60;99.90
6581;DHT22;3324;50.796;7.228;2023-04-15T03:40:20;5.60;99.90
6581;DHT22;3324;50.796;7.228;2023-04-15T03:42:46;5.60;99.90
6581;DHT22;3324;50.796;7.228;2023-04-15T03:45:11;5.50;99.90
6581;DHT22;3324;50.796;7.228;2023-04-15T03:47:37;5.50;99.90
6581;DHT22;3324;50.796;7.228;2023-04-15T03:50:02;5.50;99.90
6581;DHT22;3324;50.796;7.228;2023-04-15T03:52:28;5.50;99.90
6581;DHT22;3324;50.796;7.228;2023-04-15T03:54:54;5.40;99.90
6581;DHT22;3324;50.796;7.228;2023-04-15T03:57:20;5.30;99.90
6581;DHT22;3324;50.796;7.228;2023-04-15T03:59:45;5.30;99.90
6581;DHT22;3324;50.796;7.228;2023-04-15T04:02:11;5.30;99.90
6581;DHT22;3324;50.796;7.228;2023-04-15T04:04:37;5.30;99.90
6581;DHT22;3324;50.796;7.228;2023-04-15T04:07:02;5.20;99.90
6581;DHT22;3324;50.796;7.228;2023-04-15T04:09:28;5.30;99.90
6581;DHT22;3324;50.796;7.228;2023-04-15T04:11:53;5.20;99.90
6581;DHT22;3324;50.796;7.228;2023-04-15T04:14:19;5.30;99.90
6581;DHT22;3324;50.796;7.228;2023-04-15T04:16:44;5.30;99.90
6581;DHT22;3324;50.796;7.228;2023-04-15T04:19:10;5.30;99.90
6581;DHT22;3324;50.796;7.228;2023-04-15T04:21:36;5.40;99.90
6581;DHT22;3324;50.796;7.228;2023-04-15T04:24:04;5.40;99.90
6581;DHT22;3324;50.796;7.228;2023-04-15T04:26:30;5.40;99.90
6581;DHT22;3324;50.796;7.228;2023-04-15T04:28:55;5.40;99.90
6581;DHT22;3324;50.796;7.228;2023-04-15T04:31:21;5.40;99.90
6581;DHT22;3324;50.796;7.228;2023-04-15T04:33:46;5.30;99.90
6581;DHT22;3324;50.796;7.228;2023-04-15T04:36:12;5.30;99.90
6581;DHT22;3324;50.796;7.228;2023-04-15T04:38:37;5.20;99.90
6581;DHT22;3324;50.796;7.228;2023-04-15T04:41:03;5.20;99.90
6581;DHT22;3324;50.796;7.228;2023-04-15T04:43:29;5.20;99.90
6581;DHT22;3324;50.796;7.228;2023-04-15T04:45:54;5.10;99.90
6581;DHT22;3324;50.796;7.228;2023-04-15T04:48:20;5.10;99.90
6581;DHT22;3324;50.796;7.228;2023-04-15T04:50:46;5.00;99.90
6581;DHT22;3324;50.796;7.228;2023-04-15T04:53:12;5.10;99.90
6581;DHT22;3324;50.796;7.228;2023-04-15T04:55:37;5.30;99.90
6581;DHT22;3324;50.796;7.228;2023-04-15T04:58:03;5.20;99.90
6581;DHT22;3324;50.796;7.228;2023-04-15T05:00:28;5.20;99.90
6581;DHT22;3324;50.796;7.228;2023-04-15T05:02:55;5.20;99.90
6581;DHT22;3324;50.796;7.228;2023-04-15T05:05:20;5.20;99.90
6581;DHT22;3324;50.796;7.228;2023-04-15T05:07:46;5.20;99.90
6581;DHT22;3324;50.796;7.228;2023-04-15T05:10:13;5.20;99.90
6581;DHT22;3324;50.796;7.228;2023-04-15T05:12:39;5.20;99.90
6581;DHT22;3324;50.796;7.228;2023-04-15T05:15:05;5.20;99.90
6581;DHT22;3324;50.796;7.228;2023-04-15T05:17:31;5.20;99.90
6581;DHT22;3324;50.796;7.228;2023-04-15T05:19:59;5.30;99.90
6581;DHT22;3324;50.796;7.228;2023-04-15T05:22:25;5.30;99.90
6581;DHT22;3324;50.796;7.228;2023-04-15T05:24:50;5.30;99.90
6581;DHT22;3324;50.796;7.228;2023-04-15T05:27:16;5.40;99.90
6581;DHT22;3324;50.796;7.228;2023-04-15T05:29:43;5.40;99.90
6581;DHT22;3324;50.796;7.228;2023-04-15T05:32:09;5.50;99.90
6581;DHT22;3324;50.796;7.228;2023-04-15T05:34:35;5.50;99.90
6581;DHT22;3324;50.796;7.228;2023-04-15T05:37:00;5.60;99.90
6581;DHT22;3324;50.796;7.228;2023-04-15T05:39:26;5.60;99.90
6581;DHT22;3324;50.796;7.228;2023-04-15T05:41:52;5.70;99.90
6581;DHT22;3324;50.796;7.228;2023-04-15T05:44:18;5.80;99.90
6581;DHT22;3324;50.796;7.228;2023-04-15T05:46:43;5.90;99.90
6581;DHT22;3324;50.796;7.228;2023-04-15T05:49:09;5.90;99.90
6581;DHT22;3324;50.796;7.228;2023-04-15T05:51:35;5.90;99.90
6581;DHT22;3324;50.796;7.228;2023-04-15T05:54:00;5.80;99.90
6581;DHT22;3324;50.796;7.228;2023-04-15T05:56:26;5.80;99.90
6581;DHT22;3324;50.796;7.228;2023-04-15T05:58:52;5.80;99.90
6581;DHT22;3324;50.796;7.228;2023-04-15T06:01:17;5.80;99.90
6581;DHT22;3324;50.796;7.228;2023-04-15T06:03:43;5.90;99.90
6581;DHT22;3324;50.796;7.228;2023-04-15T06:06:09;6.00;99.90
6581;DHT22;3324;50.796;7.228;2023-04-15T06:08:34;6.20;99.90
6581;DHT22;3324;50.796;7.228;2023-04-15T06:11:00;6.30;99.90
6581;DHT22;3324;50.796;7.228;2023-04-15T06:13:26;6.40;99.90
6581;DHT22;3324;50.796;7.228;2023-04-15T06:15:52;6.60;99.90
6581;DHT22;3324;50.796;7.228;2023-04-15T06:18:18;6.70;99.90
6581;DHT22;3324;50.796;7.228;2023-04-15T06:20:44;6.80;99.90
6581;DHT22;3324;50.796;7.228;2023-04-15T06:23:10;7.00;99.90
6581;DHT22;3324;50.796;7.228;2023-04-15T06:25:36;7.10;99.90
6581;DHT22;3324;50.796;7.228;2023-04-15T06:28:02;7.20;99.90
6581;DHT22;3324;50.796;7.228;2023-04-15T06:30:27;7.40;99.90
6581;DHT22;3324;50.796;7.228;2023-04-15T06:32:54;7.40;99.90
6581;DHT22;3324;50.796;7.228;2023-04-15T06:35:20;7.50;99.90
6581;DHT22;3324;50.796;7.228;2023-04-15T06:37:45;7.60;99.90
6581;DHT22;3324;50.796;7.228;2023-04-15T06:40:11;7.70;99.90
6581;DHT22;3324;50.796;7.228;2023-04-15T06:42:37;7.80;99.90
6581;DHT22;3324;50.796;7.228;2023-04-15T06:45:03;7.90;99.90
6581;DHT22;3324;50.796;7.228;2023-04-15T06:47:29;8.00;99.90
6581;DHT22;3324;50.796;7.228;2023-04-15T06:49:54;8.10;99.90
6581;DHT22;3324;50.796;7.228;2023-04-15T06:52:20;8.30;99.90
6581;DHT22;3324;50.796;7.228;2023-04-15T06:54:45;8.40;99.90
6581;DHT22;3324;50.796;7.228;2023-04-15T06:57:11;8.50;99.90
6581;DHT22;3324;50.796;7.228;2023-04-15T06:59:37;8.60;99.90
6581;DHT22;3324;50.796;7.228;2023-04-15T07:02:02;8.70;99.90
6581;DHT22;3324;50.796;7.228;2023-04-15T07:04:28;8.70;99.90
6581;DHT22;3324;50.796;7.228;2023-04-15T07:06:53;8.70;99.90
6581;DHT22;3324;50.796;7.228;2023-04-15T07:09:23;8.90;99.90
6581;DHT22;3324;50.796;7.228;2023-04-15T07:11:49;8.90;99.90
6581;DHT22;3324;50.796;7.228;2023-04-15T07:14:15;9.00;99.90
6581;DHT22;3324;50.796;7.228;2023-04-15T07:16:41;9.00;99.90
6581;DHT22;3324;50.796;7.228;2023-04-15T07:19:07;9.10;99.90
6581;DHT22;3324;50.796;7.228;2023-04-15T07:21:32;9.10;99.90
6581;DHT22;3324;50.796;7.228;2023-04-15T07:23:58;9.20;99.90
6581;DHT22;3324;50.796;7.228;2023-04-15T07:26:23;9.20;99.90
6581;DHT22;3324;50.796;7.228;2023-04-15T07:28:49;9.30;99.90
6581;DHT22;3324;50.796;7.228;2023-04-15T07:31:15;9.30;99.90
6581;DHT22;3324;50.796;7.228;2023-04-15T07:33:41;9.50;99.90
6581;DHT22;3324;50.796;7.228;2023-04-15T07:36:07;9.70;99.90
6581;DHT22;3324;50.796;7.228;2023-04-15T07:38:33;9.80;99.90
6581;DHT22;3324;50.796;7.228;2023-04-15T07:40:59;9.90;99.90
6581;DHT22;3324;50.796;7.228;2023-04-15T07:43:24;9.90;99.90
6581;DHT22;3324;50.796;7.228;2023-04-15T07:45:50;10.00;99.90
6581;DHT22;3324;50.796;7.228;2023-04-15T07:48:15;10.10;99.90
6581;DHT22;3324;50.796;7.228;2023-04-15T07:50:41;10.30;99.90
6581;DHT22;3324;50.796;7.228;2023-04-15T07:53:07;10.40;99.90
6581;DHT22;3324;50.796;7.228;2023-04-15T07:55:32;10.50;99.90
6581;DHT22;3324;50.796;7.228;2023-04-15T07:57:58;10.60;99.90
6581;DHT22;3324;50.796;7.228;2023-04-15T08:00:24;10.80;99.90
6581;DHT22;3324;50.796;7.228;2023-04-15T08:02:49;11.00;99.90
6581;DHT22;3324;50.796;7.228;2023-04-15T08:05:17;11.10;99.90
6581;DHT22;3324;50.796;7.228;2023-04-15T08:07:43;11.30;99.90
6581;DHT22;3324;50.796;7.228;2023-04-15T08:10:09;11.40;99.90
6581;DHT22;3324;50.796;7.228;2023-04-15T08:12:36;11.50;99.90
6581;DHT22;3324;50.796;7.228;2023-04-15T08:15:02;11.60;99.90
6581;DHT22;3324;50.796;7.228;2023-04-15T08:17:28;11.60;99.90
6581;DHT22;3324;50.796;7.228;2023-04-15T08:19:54;11.80;99.90
6581;DHT22;3324;50.796;7.228;2023-04-15T08:22:19;11.90;99.90
6581;DHT22;3324;50.796;7.228;2023-04-15T08:24:45;12.00;99.90
6581;DHT22;3324;50.796;7.228;2023-04-15T08:27:10;12.10;99.90
6581;DHT22;3324;50.796;7.228;2023-04-15T08:29:36;12.10;99.90
6581;DHT22;3324;50.796;7.228;2023-04-15T08:32:02;12.10;99.90
6581;DHT22;3324;50.796;7.228;2023-04-15T08:34:28;12.20;99.90
6581;DHT22;3324;50.796;7.228;2023-04-15T08:36:54;12.20;99.90
6581;DHT22;3324;50.796;7.228;2023-04-15T08:39:20;12.20;99.90
6581;DHT22;3324;50.796;7.228;2023-04-15T08:41:47;12.30;99.90
6581;DHT22;3324;50.796;7.228;2023-04-15T08:44:17;12.50;99.90
6581;DHT22;3324;50.796;7.228;2023-04-15T08:46:43;12.60;99.90
6581;DHT22;3324;50.796;7.228;2023-04-15T08:49:12;12.80;99.90
6581;DHT22;3324;50.796;7.228;2023-04-15T08:51:41;12.90;99.90
6581;DHT22;3324;50.796;7.228;2023-04-15T08:54:10;13.00;99.90
6581;DHT22;3324;50.796;7.228;2023-04-15T08:56:37;13.10;99.90
6581;DHT22;3324;50.796;7.228;2023-04-15T08:59:03;13.20;99.90
6581;DHT22;3324;50.796;7.228;2023-04-15T09:01:30;13.30;99.90
6581;DHT22;3324;50.796;7.228;2023-04-15T09:03:56;13.40;99.90
6581;DHT22;3324;50.796;7.228;2023-04-15T09:06:23;13.50;99.90
6581;DHT22;3324;50.796;7.228;2023-04-15T09:08:50;13.70;99.90
6581;DHT22;3324;50.796;7.228;2023-04-15T09:11:16;13.70;99.90
6581;DHT22;3324;50.796;7.228;2023-04-15T09:13:42;13.70;99.90
6581;DHT22;3324;50.796;7.228;2023-04-15T09:16:08;13.70;99.90
6581;DHT22;3324;50.796;7.228;2023-04-15T09:18:36;13.50;99.90
6581;DHT22;3324;50.796;7.228;2023-04-15T09:21:08;13.50;99.90
6581;DHT22;3324;50.796;7.228;2023-04-15T09:23:36;13.50;99.90
6581;DHT22;3324;50.796;7.228;2023-04-15T09:26:03;13.60;99.90
6581;DHT22;3324;50.796;7.228;2023-04-15T09:28:29;13.70;99.90
6581;DHT22;3324;50.796;7.228;2023-04-15T09:30:56;13.90;99.90
6581;DHT22;3324;50.796;7.228;2023-04-15T09:33:22;14.00;99.90
6581;DHT22;3324;50.796;7.228;2023-04-15T09:36:01;14.10;99.90
6581;DHT22;3324;50.796;7.228;2023-04-15T09:38:27;14.20;99.90
6581;DHT22;3324;50.796;7.228;2023-04-15T09:40:53;14.50;99.90
6581;DHT22;3324;50.796;7.228;2023-04-15T09:43:19;14.50;99.90
6581;DHT22;3324;50.796;7.228;2023-04-15T09:45:52;14.40;99.90
6581;DHT22;3324;50.796;7.228;2023-04-15T09:48:24;14.20;99.90
6581;DHT22;3324;50.796;7.228;2023-04-15T09:50:59;14.30;99.90
6581;DHT22;3324;50.796;7.228;2023-04-15T09:53:26;14.40;99.90
6581;DHT22;3324;50.796;7.228;2023-04-15T09:55:54;14.50;99.90
6581;DHT22;3324;50.796;7.228;2023-04-15T09:58:21;14.70;99.90
6581;DHT22;3324;50.796;7.228;2023-04-15T10:00:48;14.80;99.90
6581;DHT22;3324;50.796;7.228;2023-04-15T10:03:20;14.90;99.90
6581;DHT22;3324;50.796;7.228;2023-04-15T10:05:51;15.10;99.90
6581;DHT22;3324;50.796;7.228;2023-04-15T10:08:18;15.30;99.90
6581;DHT22;3324;50.796;7.228;2023-04-15T10:10:44;15.40;99.90
6581;DHT22;3324;50.796;7.228;2023-04-15T10:13:12;15.50;99.90
6581;DHT22;3324;50.796;7.228;2023-04-15T10:15:38;15.50;99.90
6581;DHT22;3324;50.796;7.228;2023-04-15T10:18:06;15.60;99.90
6581;DHT22;3324;50.796;7.228;2023-04-15T10:20:33;15.70;99.90
6581;DHT22;3324;50.796;7.228;2023-04-15T10:23:00;15.80;99.90
6581;DHT22;3324;50.796;7.228;2023-04-15T10:25:27;15.80;99.90
6581;DHT22;3324;50.796;7.228;2023-04-15T10:27:53;15.90;99.90
6581;DHT22;3324;50.796;7.228;2023-04-15T10:30:21;16.00;99.90
6581;DHT22;3324;50.796;7.228;2023-04-15T10:32:47;16.10;99.90
6581;DHT22;3324;50.796;7.228;2023-04-15T10:35:14;16.00;99.90
6581;DHT22;3324;50.796;7.228;2023-04-15T10:37:40;16.00;99.90
6581;DHT22;3324;50.796;7.228;2023-04-15T10:40:23;16.00;99.90
6581;DHT22;3324;50.796;7.228;2023-04-15T10:42:52;16.00;99.90
6581;DHT22;3324;50.796;7.228;2023-04-15T10:45:18;15.90;99.90
6581;DHT22;3324;50.796;7.228;2023-04-15T10:47:44;15.80;99.90
6581;DHT22;3324;50.796;7.228;2023-04-15T10:50:09;15.70;99.90
6581;DHT22;3324;50.796;7.228;2023-04-15T10:52:39;15.50;99.90
6581;DHT22;3324;50.796;7.228;2023-04-15T10:55:19;15.40;99.90
6581;DHT22;3324;50.796;7.228;2023-04-15T10:57:45;15.30;99.90
6581;DHT22;3324;50.796;7.228;2023-04-15T11:02:52;15.60;99.90
6581;DHT22;3324;50.796;7.228;2023-04-15T11:05:19;15.70;99.90
6581;DHT22;3324;50.796;7.228;2023-04-15T11:12:53;15.70;99.90
6581;DHT22;3324;50.796;7.228;2023-04-15T11:18:21;15.30;99.90
6581;DHT22;3324;50.796;7.228;2023-04-15T11:20:49;15.30;99.90
6581;DHT22;3324;50.796;7.228;2023-04-15T11:23:17;15.20;99.90
6581;DHT22;3324;50.796;7.228;2023-04-15T11:25:43;15.20;99.90
6581;DHT22;3324;50.796;7.228;2023-04-15T11:28:09;15.20;99.90
6581;DHT22;3324;50.796;7.228;2023-04-15T11:30:36;15.10;99.90
6581;DHT22;3324;50.796;7.228;2023-04-15T11:33:07;15.10;99.90
6581;DHT22;3324;50.796;7.228;2023-04-15T11:35:34;15.00;99.90
6581;DHT22;3324;50.796;7.228;2023-04-15T11:38:04;14.90;99.90
6581;DHT22;3324;50.796;7.228;2023-04-15T11:40:30;14.80;99.90
6581;DHT22;3324;50.796;7.228;2023-04-15T11:43:11;14.60;99.90
6581;DHT22;3324;50.796;7.228;2023-04-15T11:45:50;14.60;99.90
6581;DHT22;3324;50.796;7.228;2023-04-15T11:48:17;14.50;99.90
6581;DHT22;3324;50.796;7.228;2023-04-15T11:50:43;14.50;99.90
6581;DHT22;3324;50.796;7.228;2023-04-15T11:53:11;14.40;99.90
6581;DHT22;3324;50.796;7.228;2023-04-15T11:55:45;14.30;99.90
6581;DHT22;3324;50.796;7.228;2023-04-15T11:58:17;14.30;99.90
6581;DHT22;3324;50.796;7.228;2023-04-15T12:00:53;14.40;99.90
6581;DHT22;3324;50.796;7.228;2023-04-15T12:11:26;14.10;99.90
6581;DHT22;3324;50.796;7.228;2023-04-15T12:13:57;14.00;99.90
6581;DHT22;3324;50.796;7.228;2023-04-15T12:16:24;13.90;99.90
6581;DHT22;3324;50.796;7.228;2023-04-15T12:18:50;13.60;99.90
6581;DHT22;3324;50.796;7.228;2023-04-15T12:21:19;13.50;99.90
6581;DHT22;3324;50.796;7.228;2023-04-15T12:23:52;13.40;99.90
6581;DHT22;3324;50.796;7.228;2023-04-15T12:26:33;13.30;99.90
6581;DHT22;3324;50.796;7.228;2023-04-15T12:29:05;13.30;99.90
6581;DHT22;3324;50.796;7.228;2023-04-15T12:31:33;13.20;99.90
6581;DHT22;3324;50.796;7.228;2023-04-15T12:34:00;13.00;99.90
6581;DHT22;3324;50.796;7.228;2023-04-15T12:36:26;12.90;99.90
6581;DHT22;3324;50.796;7.228;2023-04-15T12:38:52;12.90;99.90
6581;DHT22;3324;50.796;7.228;2023-04-15T12:41:20;12.90;99.90
6581;DHT22;3324;50.796;7.228;2023-04-15T12:43:46;12.80;99.90
6581;DHT22;3324;50.796;7.228;2023-04-15T12:46:12;12.70;99.90
6581;DHT22;3324;50.796;7.228;2023-04-15T12:48:39;12.70;99.90
6581;DHT22;3324;50.796;7.228;2023-04-15T12:51:04;12.70;99.90
6581;DHT22;3324;50.796;7.228;2023-04-15T12:53:30;12.70;99.90
6581;DHT22;3324;50.796;7.228;2023-04-15T12:55:56;12.70;99.90
6581;DHT22;3324;50.796;7.228;2023-04-15T12:58:22;12.70;99.90
6581;DHT22;3324;50.796;7.228;2023-04-15T13:00:47;12.70;99.90
6581;DHT22;3324;50.796;7.228;2023-04-15T13:03:14;12.60;99.90
6581;DHT22;3324;50.796;7.228;2023-04-15T13:05:40;12.50;99.90
6581;DHT22;3324;50.796;7.228;2023-04-15T13:08:06;12.50;99.90
6581;DHT22;3324;50.796;7.228;2023-04-15T13:10:32;12.50;99.90
6581;DHT22;3324;50.796;7.228;2023-04-15T13:12:58;12.50;99.90
6581;DHT22;3324;50.796;7.228;2023-04-15T13:15:23;12.50;99.90
6581;DHT22;3324;50.796;7.228;2023-04-15T13:17:50;12.50;99.90
6581;DHT22;3324;50.796;7.228;2023-04-15T13:20:16;12.60;99.90
6581;DHT22;3324;50.796;7.228;2023-04-15T13:22:41;12.50;99.90
6581;DHT22;3324;50.796;7.228;2023-04-15T13:25:07;12.50;99.90
6581;DHT22;3324;50.796;7.228;2023-04-15T13:27:33;12.50;99.90
6581;DHT22;3324;50.796;7.228;2023-04-15T13:29:59;12.50;99.90
6581;DHT22;3324;50.796;7.228;2023-04-15T13:32:25;12.50;99.90
6581;DHT22;3324;50.796;7.228;2023-04-15T13:34:50;12.60;99.90
6581;DHT22;3324;50.796;7.228;2023-04-15T13:37:16;12.60;99.90
6581;DHT22;3324;50.796;7.228;2023-04-15T13:39:42;12.60;99.90
6581;DHT22;3324;50.796;7.228;2023-04-15T13:42:08;12.60;99.90
6581;DHT22;3324;50.796;7.228;2023-04-15T13:44:34;12.60;99.90
6581;DHT22;3324;50.796;7.228;2023-04-15T13:47:02;12.80;99.90
6581;DHT22;3324;50.796;7.228;2023-04-15T13:49:28;12.80;99.90
6581;DHT22;3324;50.796;7.228;2023-04-15T13:51:56;12.80;99.90
6581;DHT22;3324;50.796;7.228;2023-04-15T13:54:22;12.90;99.90
6581;DHT22;3324;50.796;7.228;2023-04-15T13:56:51;12.90;99.90
6581;DHT22;3324;50.796;7.228;2023-04-15T13:59:16;12.90;99.90
6581;DHT22;3324;50.796;7.228;2023-04-15T14:01:42;12.80;99.90
6581;DHT22;3324;50.796;7.228;2023-04-15T14:04:08;12.80;99.90
6581;DHT22;3324;50.796;7.228;2023-04-15T14:06:34;12.80;99.90
6581;DHT22;3324;50.796;7.228;2023-04-15T14:08:59;12.80;99.90
6581;DHT22;3324;50.796;7.228;2023-04-15T14:11:25;12.90;99.90
6581;DHT22;3324;50.796;7.228;2023-04-15T14:13:51;12.90;99.90
6581;DHT22;3324;50.796;7.228;2023-04-15T14:16:16;12.90;99.90
6581;DHT22;3324;50.796;7.228;2023-04-15T14:18:43;12.80;99.90
6581;DHT22;3324;50.796;7.228;2023-04-15T14:21:08;12.80;99.90
6581;DHT22;3324;50.796;7.228;2023-04-15T14:23:34;12.70;99.90
6581;DHT22;3324;50.796;7.228;2023-04-15T14:26:00;12.60;99.90
6581;DHT22;3324;50.796;7.228;2023-04-15T14:28:26;12.50;99.90
6581;DHT22;3324;50.796;7.228;2023-04-15T14:30:51;12.50;99.90
6581;DHT22;3324;50.796;7.228;2023-04-15T14:33:18;12.30;99.90
6581;DHT22;3324;50.796;7.228;2023-04-15T14:35:43;12.30;99.90
6581;DHT22;3324;50.796;7.228;2023-04-15T14:38:09;12.30;99.90
6581;DHT22;3324;50.796;7.228;2023-04-15T14:40:35;12.20;99.90
6581;DHT22;3324;50.796;7.228;2023-04-15T14:43:01;12.10;99.90
6581;DHT22;3324;50.796;7.228;2023-04-15T14:45:27;12.10;99.90
6581;DHT22;3324;50.796;7.228;2023-04-15T14:47:54;12.20;99.90
6581;DHT22;3324;50.796;7.228;2023-04-15T14:50:20;12.30;99.90
6581;DHT22;3324;50.796;7.228;2023-04-15T14:52:46;12.40;99.90
6581;DHT22;3324;50.796;7.228;2023-04-15T14:55:12;12.40;99.90
6581;DHT22;3324;50.796;7.228;2023-04-15T14:57:39;12.50;99.90
6581;DHT22;3324;50.796;7.228;2023-04-15T15:00:06;12.80;99.90
6581;DHT22;3324;50.796;7.228;2023-04-15T15:02:33;13.00;99.90
6581;DHT22;3324;50.796;7.228;2023-04-15T15:05:00;13.00;99.90
6581;DHT22;3324;50.796;7.228;2023-04-15T15:07:25;13.00;99.90
6581;DHT22;3324;50.796;7.228;2023-04-15T15:09:52;12.90;99.90
6581;DHT22;3324;50.796;7.228;2023-04-15T15:12:17;12.70;99.90
6581;DHT22;3324;50.796;7.228;2023-04-15T15:14:43;12.60;99.90
6581;DHT22;3324;50.796;7.228;2023-04-15T15:17:09;12.50;99.90
6581;DHT22;3324;50.796;7.228;2023-04-15T15:19:35;12.30;99.90
6581;DHT22;3324;50.796;7.228;2023-04-15T15:22:02;12.30;99.90
6581;DHT22;3324;50.796;7.228;2023-04-15T15:24:27;12.20;99.90
6581;DHT22;3324;50.796;7.228;2023-04-15T15:26:53;12.10;99.90
6581;DHT22;3324;50.796;7.228;2023-04-15T15:29:22;12.10;99.90
6581;DHT22;3324;50.796;7.228;2023-04-15T15:31:48;12.00;99.90
6581;DHT22;3324;50.796;7.228;2023-04-15T15:34:15;12.00;99.90
6581;DHT22;3324;50.796;7.228;2023-04-15T15:36:41;12.00;99.90
6581;DHT22;3324;50.796;7.228;2023-04-15T15:39:07;11.90;99.90
6581;DHT22;3324;50.796;7.228;2023-04-15T15:41:32;11.90;99.90
6581;DHT22;3324;50.796;7.228;2023-04-15T15:43:58;11.90;99.90
6581;DHT22;3324;50.796;7.228;2023-04-15T15:46:25;11.80;99.90
6581;DHT22;3324;50.796;7.228;2023-04-15T15:48:52;11.90;99.90
6581;DHT22;3324;50.796;7.228;2023-04-15T15:51:18;11.90;99.90
6581;DHT22;3324;50.796;7.228;2023-04-15T15:53:44;11.90;99.90
6581;DHT22;3324;50.796;7.228;2023-04-15T15:56:10;11.90;99.90
6581;DHT22;3324;50.796;7.228;2023-04-15T15:58:35;11.80;99.90
6581;DHT22;3324;50.796;7.228;2023-04-15T16:01:01;11.80;99.90
6581;DHT22;3324;50.796;7.228;2023-04-15T16:03:27;11.80;99.90
6581;DHT22;3324;50.796;7.228;2023-04-15T16:05:52;11.70;99.90
6581;DHT22;3324;50.796;7.228;2023-04-15T16:08:18;11.70;99.90
6581;DHT22;3324;50.796;7.228;2023-04-15T16:10:44;11.70;99.90
6581;DHT22;3324;50.796;7.228;2023-04-15T16:13:10;11.70;99.90
6581;DHT22;3324;50.796;7.228;2023-04-15T16:15:36;11.70;99.90
6581;DHT22;3324;50.796;7.228;2023-04-15T16:18:01;11.50;99.90
6581;DHT22;3324;50.796;7.228;2023-04-15T16:20:27;11.60;99.90
6581;DHT22;3324;50.796;7.228;2023-04-15T16:22:55;11.50;99.90